createdAt,value
2024-01-20T00:00:14.957Z,16.10
2024-01-20T00:02:42.167Z,15.30
2024-01-20T00:05:11.201Z,16.70
2024-01-20T00:07:40.332Z,17.30
2024-01-20T00:10:12.431Z,16.80
2024-01-20T00:12:41.801Z,17.00
2024-01-20T00:15:10.245Z,15.80
2024-01-20T00:17:39.216Z,16.60
2024-01-20T00:20:07.164Z,16.20
2024-01-20T00:22:34.030Z,17.30
2024-01-20T00:25:03.340Z,17.00
2024-01-20T00:29:58.276Z,18.20
2024-01-20T00:32:25.053Z,16.40
2024-01-20T00:35:00.545Z,16.90
2024-01-20T00:37:37.917Z,16.40
2024-01-20T00:40:06.535Z,16.70
2024-01-20T00:42:33.483Z,16.60
2024-01-20T00:45:00.470Z,15.90
2024-01-20T00:47:27.234Z,16.40
2024-01-20T00:49:54.400Z,16.60
2024-01-20T00:52:21.048Z,16.60
2024-01-20T00:54:47.685Z,16.10
2024-01-20T00:57:14.562Z,17.10
2024-01-20T00:59:41.581Z,17.40
2024-01-20T01:02:08.472Z,16.50
2024-01-20T01:04:35.386Z,17.70
2024-01-20T01:07:02.195Z,18.40
2024-01-20T01:09:28.816Z,17.90
2024-01-20T01:11:55.644Z,18.40
2024-01-20T01:14:22.718Z,19.50
2024-01-20T01:16:49.494Z,19.50
2024-01-20T01:19:16.990Z,18.50
2024-01-20T01:21:43.643Z,19.00
2024-01-20T01:24:10.500Z,18.50
2024-01-20T01:26:37.492Z,19.50
2024-01-20T01:29:05.871Z,18.20
2024-01-20T01:31:32.911Z,17.80
2024-01-20T01:33:59.599Z,18.90
2024-01-20T01:36:26.263Z,19.40
2024-01-20T01:38:52.886Z,20.20
2024-01-20T01:41:20.687Z,18.90
2024-01-20T01:43:47.741Z,18.90
2024-01-20T01:46:14.949Z,18.70
2024-01-20T01:48:41.617Z,19.10
2024-01-20T01:51:09.310Z,19.00
2024-01-20T01:53:36.661Z,18.50
2024-01-20T01:56:06.041Z,18.50
2024-01-20T01:58:32.773Z,19.80
2024-01-20T02:01:00.458Z,19.60
2024-01-20T02:03:27.474Z,18.80
2024-01-20T02:05:54.747Z,19.20
2024-01-20T02:08:21.698Z,19.80
2024-01-20T02:10:48.717Z,20.60
2024-01-20T02:13:16.126Z,19.00
2024-01-20T02:15:43.775Z,19.40
2024-01-20T02:18:10.808Z,19.50
2024-01-20T02:20:37.558Z,18.40
2024-01-20T02:23:04.231Z,20.50
2024-01-20T02:25:30.825Z,19.40
2024-01-20T02:27:57.444Z,20.60
2024-01-20T02:30:24.073Z,19.80
2024-01-20T02:32:50.982Z,21.00
2024-01-20T02:35:20.297Z,21.10
2024-01-20T02:40:14.036Z,18.90
2024-01-20T02:42:40.853Z,20.00
2024-01-20T02:45:08.115Z,20.40
2024-01-20T02:47:34.994Z,20.10
2024-01-20T02:50:01.892Z,18.90
2024-01-20T02:52:28.604Z,21.20
2024-01-20T02:54:55.188Z,20.20
2024-01-20T02:57:21.899Z,21.50
2024-01-20T02:59:48.778Z,20.10
2024-01-20T03:02:15.407Z,18.60
2024-01-20T03:04:42.048Z,18.60
2024-01-20T03:07:08.703Z,20.60
2024-01-20T03:09:35.369Z,18.20
2024-01-20T03:12:02.909Z,18.80
2024-01-20T03:14:29.820Z,18.70
2024-01-20T03:17:02.511Z,17.70
2024-01-20T03:19:29.123Z,17.90
2024-01-20T03:21:55.953Z,16.00
2024-01-20T03:24:22.691Z,18.50
2024-01-20T03:26:50.501Z,17.20
2024-01-20T03:29:17.545Z,18.00
2024-01-20T03:31:44.385Z,17.40
2024-01-20T03:34:11.375Z,17.30
2024-01-20T03:36:38.318Z,18.10
2024-01-20T03:39:05.302Z,16.40
2024-01-20T03:41:32.547Z,17.60
2024-01-20T03:43:59.333Z,16.70
2024-01-20T03:46:26.152Z,16.70
2024-01-20T03:48:53.090Z,16.40
2024-01-20T03:51:20.133Z,16.70
2024-01-20T03:53:46.855Z,16.30
2024-01-20T03:56:13.444Z,17.80
2024-01-20T03:58:40.069Z,16.80
2024-01-20T04:01:06.726Z,14.90
2024-01-20T04:03:33.490Z,17.40
2024-01-20T04:06:00.311Z,16.20
2024-01-20T04:08:26.978Z,15.60
2024-01-20T04:10:53.676Z,14.30
2024-01-20T04:13:20.392Z,16.00
2024-01-20T04:15:47.451Z,16.30
2024-01-20T04:18:14.336Z,15.60
2024-01-20T04:20:41.176Z,13.80
2024-01-20T04:23:07.819Z,16.40
2024-01-20T04:25:34.481Z,15.10
2024-01-20T04:28:01.387Z,16.10
2024-01-20T04:30:28.034Z,14.20
2024-01-20T04:32:54.969Z,14.90
2024-01-20T04:35:21.889Z,13.70
2024-01-20T04:37:48.549Z,15.00
2024-01-20T04:40:15.225Z,14.70
2024-01-20T04:42:41.844Z,14.30
2024-01-20T04:45:09.798Z,15.20
2024-01-20T04:47:36.776Z,13.30
2024-01-20T04:50:03.650Z,13.40
2024-01-20T04:52:30.286Z,14.80
2024-01-20T04:54:56.935Z,14.50
2024-01-20T04:57:23.723Z,14.30
2024-01-20T04:59:50.409Z,14.90
2024-01-20T05:02:17.221Z,13.80
2024-01-20T05:04:44.634Z,14.60
2024-01-20T05:07:11.599Z,15.00
2024-01-20T05:09:38.430Z,13.60
2024-01-20T05:12:05.727Z,14.20
2024-01-20T05:14:32.397Z,14.30
2024-01-20T05:16:59.061Z,15.00
2024-01-20T05:19:26.121Z,14.70
2024-01-20T05:21:52.880Z,14.20
2024-01-20T05:24:19.630Z,14.00
2024-01-20T05:26:46.296Z,15.80
2024-01-20T05:29:13.013Z,15.00
2024-01-20T05:31:39.814Z,14.20
2024-01-20T05:34:06.758Z,15.50
2024-01-20T05:36:33.622Z,15.50
2024-01-20T05:39:00.420Z,15.00
2024-01-20T05:41:27.042Z,14.30
2024-01-20T05:43:53.940Z,14.80
2024-01-20T05:46:21.462Z,15.30
2024-01-20T05:48:50.007Z,13.20
2024-01-20T05:51:16.779Z,13.90
2024-01-20T05:53:43.689Z,14.40
2024-01-20T05:56:10.359Z,13.30
2024-01-20T05:58:37.041Z,13.40
2024-01-20T06:01:04.118Z,13.50
2024-01-20T06:03:31.346Z,13.10
2024-01-20T06:05:58.075Z,12.40
2024-01-20T06:08:24.764Z,14.70
2024-01-20T06:10:52.484Z,17.90
2024-01-20T06:13:20.041Z,23.80
2024-01-20T06:15:46.676Z,13.20
2024-01-20T06:18:13.695Z,12.90
2024-01-20T06:20:40.561Z,30.60
2024-01-20T06:23:07.259Z,15.80
2024-01-20T06:25:33.937Z,15.70
2024-01-20T06:28:00.556Z,14.10
2024-01-20T06:30:27.165Z,12.70
2024-01-20T06:32:53.908Z,11.70
2024-01-20T06:35:20.652Z,12.50
2024-01-20T06:37:47.329Z,13.30
2024-01-20T06:40:14.658Z,12.90
2024-01-20T06:42:41.329Z,11.90
2024-01-20T06:45:08.843Z,11.60
2024-01-20T06:47:35.718Z,12.80
2024-01-20T06:50:03.901Z,12.60
2024-01-20T06:52:32.496Z,11.20
2024-01-20T06:54:59.432Z,12.90
2024-01-20T06:57:26.272Z,11.90
2024-01-20T06:59:52.887Z,11.90
2024-01-20T07:02:19.476Z,12.90
2024-01-20T07:04:46.126Z,12.30
2024-01-20T07:07:13.681Z,12.00
2024-01-20T07:09:41.242Z,13.00
2024-01-20T07:12:08.851Z,12.00
2024-01-20T07:14:36.647Z,12.00
2024-01-20T07:17:03.690Z,13.10
2024-01-20T07:19:31.093Z,13.70
2024-01-20T07:21:58.217Z,12.50
2024-01-20T07:24:24.854Z,12.50
2024-01-20T07:26:51.505Z,13.80
2024-01-20T07:29:18.155Z,13.00
2024-01-20T07:31:44.756Z,12.20
2024-01-20T07:34:11.463Z,12.60
2024-01-20T07:36:38.864Z,12.60
2024-01-20T07:39:05.783Z,12.50
2024-01-20T07:41:32.554Z,12.90
2024-01-20T07:43:59.160Z,12.80
2024-01-20T07:46:25.822Z,12.90
2024-01-20T07:48:52.524Z,14.20
2024-01-20T07:51:19.320Z,12.80
2024-01-20T07:53:45.974Z,13.10
2024-01-20T07:56:13.883Z,13.60
2024-01-20T07:58:40.532Z,13.40
2024-01-20T08:01:07.206Z,13.00
2024-01-20T08:03:33.904Z,13.00
2024-01-20T08:06:01.656Z,21.30
2024-01-20T08:08:28.337Z,12.70
2024-01-20T08:10:54.995Z,14.80
2024-01-20T08:13:22.005Z,13.50
2024-01-20T08:15:48.653Z,13.90
2024-01-20T08:18:15.566Z,12.90
2024-01-20T08:20:42.357Z,14.90
2024-01-20T08:23:09.520Z,13.00
2024-01-20T08:25:36.169Z,12.20
2024-01-20T08:28:02.879Z,13.60
2024-01-20T08:30:29.977Z,12.10
2024-01-20T08:33:01.668Z,13.30
2024-01-20T08:35:30.307Z,13.00
2024-01-20T08:37:57.026Z,12.80
2024-01-20T08:40:24.511Z,13.00
2024-01-20T08:42:51.159Z,13.50
2024-01-20T08:45:17.809Z,14.00
2024-01-20T08:47:44.739Z,12.40
2024-01-20T08:50:11.730Z,14.20
2024-01-20T08:52:39.421Z,13.80
2024-01-20T08:55:06.606Z,12.00
2024-01-20T08:57:34.615Z,12.90
2024-01-20T09:00:02.197Z,13.70
2024-01-20T09:02:29.325Z,13.50
2024-01-20T09:04:57.076Z,13.20
2024-01-20T09:07:23.755Z,12.90
2024-01-20T09:09:50.411Z,14.00
2024-01-20T09:12:17.041Z,14.90
2024-01-20T09:14:44.122Z,13.60
2024-01-20T09:17:10.854Z,13.10
2024-01-20T09:19:37.566Z,13.50
2024-01-20T09:22:04.747Z,13.20
2024-01-20T09:24:31.398Z,13.90
2024-01-20T09:26:58.107Z,13.80
2024-01-20T09:29:24.946Z,12.10
2024-01-20T09:31:51.771Z,13.40
2024-01-20T09:34:18.529Z,13.30
2024-01-20T09:36:46.529Z,12.70
2024-01-20T09:39:13.639Z,12.70
2024-01-20T09:41:40.455Z,12.70
2024-01-20T09:44:13.557Z,12.00
2024-01-20T09:46:40.466Z,12.10
2024-01-20T09:49:07.638Z,12.20
2024-01-20T09:51:34.498Z,13.10
2024-01-20T09:54:02.118Z,11.90
2024-01-20T09:56:29.658Z,12.70
2024-01-20T09:59:04.210Z,12.70
2024-01-20T10:01:32.252Z,13.20
2024-01-20T10:04:04.144Z,12.40
2024-01-20T10:06:31.645Z,12.10
2024-01-20T10:08:59.048Z,12.60
2024-01-20T10:11:27.007Z,13.50
2024-01-20T10:13:53.689Z,12.20
2024-01-20T10:16:22.112Z,11.70
2024-01-20T10:18:50.071Z,12.50
2024-01-20T10:21:16.819Z,11.10
2024-01-20T10:23:43.657Z,11.50
2024-01-20T10:26:10.758Z,12.00
2024-01-20T10:28:37.435Z,13.40
2024-01-20T10:31:09.923Z,12.20
2024-01-20T10:33:37.272Z,12.60
2024-01-20T10:36:05.311Z,13.70
2024-01-20T10:38:37.999Z,12.70
2024-01-20T10:41:08.233Z,11.20
2024-01-20T10:43:41.150Z,12.00
2024-01-20T10:46:22.390Z,13.00
2024-01-20T10:48:54.423Z,12.40
2024-01-20T10:51:27.523Z,13.80
2024-01-20T10:53:57.016Z,13.30
2024-01-20T10:56:25.557Z,12.90
2024-01-20T10:59:09.621Z,14.50
2024-01-20T11:01:41.396Z,14.10
2024-01-20T11:04:09.019Z,15.00
2024-01-20T11:06:37.423Z,14.40
2024-01-20T11:09:04.289Z,13.90
2024-01-20T11:11:36.074Z,16.30
2024-01-20T11:14:03.002Z,17.10
2024-01-20T11:16:34.413Z,14.20
2024-01-20T11:19:13.355Z,15.40
2024-01-20T11:21:40.822Z,15.70
2024-01-20T11:24:08.190Z,14.10
2024-01-20T11:26:37.286Z,14.80
2024-01-20T11:29:06.356Z,15.30
2024-01-20T11:31:33.589Z,15.10
2024-01-20T11:34:03.164Z,14.30
2024-01-20T11:38:59.578Z,14.80
2024-01-20T11:41:26.799Z,17.10
2024-01-20T11:43:54.155Z,16.40
2024-01-20T11:46:21.773Z,15.50
2024-01-20T11:48:49.065Z,17.40
2024-01-20T11:51:17.105Z,15.80
2024-01-20T11:53:45.113Z,14.40
2024-01-20T11:56:12.035Z,14.40
2024-01-20T11:58:39.005Z,16.60
2024-01-20T12:01:06.125Z,14.80
2024-01-20T12:03:33.586Z,14.30
2024-01-20T12:06:12.906Z,14.90
2024-01-20T12:08:46.343Z,15.90
2024-01-20T12:11:20.565Z,13.40
2024-01-20T12:13:50.793Z,14.30
2024-01-20T12:16:18.414Z,15.70
2024-01-20T12:18:45.786Z,15.30
2024-01-20T12:21:12.724Z,14.60
2024-01-20T12:23:39.812Z,13.50
2024-01-20T12:26:17.318Z,15.10
2024-01-20T12:28:46.523Z,15.50
2024-01-20T12:31:16.801Z,14.90
2024-01-20T12:33:45.437Z,13.50
2024-01-20T12:36:12.732Z,16.30
2024-01-20T12:38:39.536Z,14.90
2024-01-20T12:41:06.261Z,14.60
2024-01-20T12:43:33.216Z,12.50
2024-01-20T12:45:59.904Z,14.20
2024-01-20T12:48:26.811Z,14.70
2024-01-20T12:50:53.779Z,14.60
2024-01-20T12:53:20.484Z,14.60
2024-01-20T12:55:47.112Z,15.10
2024-01-20T12:58:13.788Z,16.90
2024-01-20T13:00:40.461Z,16.20
2024-01-20T13:03:07.221Z,15.40
2024-01-20T13:05:34.217Z,16.70
2024-01-20T13:08:01.035Z,16.30
2024-01-20T13:10:29.094Z,14.30
2024-01-20T13:12:55.739Z,15.30
2024-01-20T13:15:24.963Z,16.60
2024-01-20T13:17:51.794Z,17.20
2024-01-20T13:20:18.802Z,14.60
2024-01-20T13:22:45.538Z,17.10
2024-01-20T13:25:13.527Z,16.60
2024-01-20T13:27:40.258Z,17.00
2024-01-20T13:30:07.823Z,16.60
2024-01-20T13:32:34.808Z,15.80
2024-01-20T13:35:01.773Z,16.10
2024-01-20T13:37:28.388Z,15.80
2024-01-20T13:39:55.115Z,17.40
2024-01-20T13:42:22.088Z,16.70
2024-01-20T13:44:48.895Z,14.70
2024-01-20T13:47:15.591Z,16.40
2024-01-20T13:49:42.671Z,16.40
2024-01-20T13:52:09.404Z,15.40
2024-01-20T13:54:42.081Z,15.80
2024-01-20T13:57:11.808Z,16.30
2024-01-20T13:59:38.722Z,16.10
2024-01-20T14:02:05.422Z,17.80
2024-01-20T14:04:32.149Z,16.40
2024-01-20T14:07:03.410Z,14.90
2024-01-20T14:09:32.487Z,16.30
2024-01-20T14:11:59.361Z,16.50
2024-01-20T14:14:26.043Z,14.70
2024-01-20T14:17:00.979Z,16.70
2024-01-20T14:19:30.746Z,15.10
2024-01-20T14:24:24.287Z,16.90
2024-01-20T14:26:51.072Z,17.90
2024-01-20T14:29:20.192Z,19.50
2024-01-20T14:31:53.378Z,16.00
2024-01-20T14:34:21.755Z,16.10
2024-01-20T14:36:52.478Z,15.90
2024-01-20T14:39:19.385Z,16.30
2024-01-20T14:41:47.156Z,16.10
2024-01-20T14:44:14.280Z,15.60
2024-01-20T14:46:41.457Z,17.50
2024-01-20T14:49:09.048Z,17.50
2024-01-20T14:51:36.470Z,14.80
2024-01-20T14:54:04.390Z,17.50
2024-01-20T14:56:32.398Z,16.10
2024-01-20T14:59:04.283Z,14.70
2024-01-20T15:01:31.859Z,16.00
2024-01-20T15:03:58.702Z,15.30
2024-01-20T15:06:26.883Z,14.90
2024-01-20T15:08:54.775Z,15.30
2024-01-20T15:11:21.390Z,14.80
2024-01-20T15:13:48.222Z,14.40
2024-01-20T15:16:15.055Z,17.90
2024-01-20T15:18:41.835Z,14.00
2024-01-20T15:21:08.961Z,14.00
2024-01-20T15:23:35.725Z,15.20
2024-01-20T15:26:02.705Z,15.40
2024-01-20T15:28:29.802Z,14.00
2024-01-20T15:30:56.505Z,14.60
2024-01-20T15:33:23.610Z,15.00
2024-01-20T15:35:50.451Z,15.00
2024-01-20T15:38:17.106Z,15.90
2024-01-20T15:40:44.702Z,15.30
2024-01-20T15:43:11.593Z,14.50
2024-01-20T15:45:39.171Z,16.20
2024-01-20T15:48:08.723Z,15.40
2024-01-20T15:50:35.558Z,15.30
2024-01-20T15:53:02.254Z,16.30
2024-01-20T15:55:28.977Z,15.10
2024-01-20T15:57:55.607Z,14.40
2024-01-20T16:00:22.613Z,15.60
2024-01-20T16:02:50.062Z,15.90
2024-01-20T16:05:17.496Z,15.90
2024-01-20T16:07:44.937Z,16.90
2024-01-20T16:10:11.674Z,16.00
2024-01-20T16:12:38.457Z,16.80
2024-01-20T16:15:06.072Z,17.50
2024-01-20T16:17:33.149Z,16.00
2024-01-20T16:20:00.673Z,16.00
2024-01-20T16:22:28.822Z,17.80
2024-01-20T16:24:56.566Z,16.30
2024-01-20T16:27:23.249Z,17.50
2024-01-20T16:29:49.911Z,17.40
2024-01-20T16:32:16.999Z,16.20
2024-01-20T16:34:43.848Z,19.40
2024-01-20T16:37:10.658Z,17.50
2024-01-20T16:39:37.586Z,17.70
2024-01-20T16:42:04.913Z,18.40
2024-01-20T16:44:31.633Z,19.50
2024-01-20T16:46:58.264Z,19.00
2024-01-20T16:49:25.968Z,19.90
2024-01-20T16:51:52.769Z,20.40
2024-01-20T16:54:19.637Z,19.60
2024-01-20T16:56:46.419Z,18.30
2024-01-20T16:59:13.241Z,19.30
2024-01-20T17:01:39.933Z,19.30
2024-01-20T17:04:07.153Z,18.50
2024-01-20T17:06:34.348Z,19.70
2024-01-20T17:09:02.267Z,18.70
2024-01-20T17:11:29.052Z,18.60
2024-01-20T17:13:56.115Z,18.10
2024-01-20T17:16:22.785Z,19.30
2024-01-20T17:18:49.580Z,17.50
2024-01-20T17:21:18.136Z,17.90
2024-01-20T17:23:45.070Z,18.40
2024-01-20T17:26:12.197Z,18.90
2024-01-20T17:28:38.877Z,18.40
2024-01-20T17:31:05.935Z,19.40
2024-01-20T17:33:32.863Z,18.90
2024-01-20T17:35:59.580Z,17.60
2024-01-20T17:38:26.241Z,19.80
2024-01-20T17:40:52.873Z,18.80
2024-01-20T17:43:19.578Z,17.80
2024-01-20T17:45:50.296Z,20.20
2024-01-20T17:48:17.691Z,18.50
2024-01-20T17:50:44.900Z,18.40
2024-01-20T17:53:13.697Z,19.20
2024-01-20T17:55:41.098Z,20.20
2024-01-20T17:58:10.139Z,17.80
2024-01-20T18:00:38.190Z,20.10
2024-01-20T18:03:05.358Z,19.30
2024-01-20T18:05:32.111Z,18.80
2024-01-20T18:07:58.895Z,19.50
2024-01-20T18:10:26.080Z,18.90
2024-01-20T18:12:52.699Z,18.30
2024-01-20T18:15:19.734Z,17.40
2024-01-20T18:17:46.845Z,19.80
2024-01-20T18:20:14.138Z,20.40
2024-01-20T18:22:42.331Z,17.50
2024-01-20T18:25:09.099Z,18.10
2024-01-20T18:27:36.600Z,18.50
2024-01-20T18:30:03.729Z,17.60
2024-01-20T18:32:30.532Z,17.80
2024-01-20T18:34:57.775Z,18.40
2024-01-20T18:37:24.663Z,19.20
2024-01-20T18:39:52.311Z,17.20
2024-01-20T18:42:21.226Z,18.10
2024-01-20T18:44:50.000Z,18.80
2024-01-20T18:47:17.287Z,18.60
2024-01-20T18:49:44.846Z,17.50
2024-01-20T18:52:12.111Z,16.70
2024-01-20T18:54:39.388Z,17.40
2024-01-20T18:57:09.260Z,17.30
2024-01-20T18:59:35.966Z,15.50
2024-01-20T19:02:02.645Z,18.40
2024-01-20T19:04:29.535Z,17.70
2024-01-20T19:06:59.635Z,17.40
2024-01-20T19:09:27.204Z,17.00
2024-01-20T19:11:57.381Z,15.70
2024-01-20T19:14:24.392Z,16.70
2024-01-20T19:16:51.112Z,16.20
2024-01-20T19:19:20.291Z,15.10
2024-01-20T19:21:48.489Z,15.20
2024-01-20T19:24:16.067Z,15.40
2024-01-20T19:26:43.039Z,15.40
2024-01-20T19:29:11.122Z,14.10
2024-01-20T19:31:39.682Z,14.60
2024-01-20T19:34:07.202Z,16.50
2024-01-20T19:36:34.169Z,14.70
2024-01-20T19:39:03.942Z,16.30
2024-01-20T19:41:32.713Z,16.10
2024-01-20T19:43:59.534Z,16.40
2024-01-20T19:46:26.301Z,14.80
2024-01-20T19:48:53.129Z,14.80
2024-01-20T19:51:20.245Z,15.60
2024-01-20T19:53:46.991Z,15.10
2024-01-20T19:56:16.455Z,13.90
2024-01-20T19:58:43.133Z,14.90
2024-01-20T20:01:10.151Z,16.00
2024-01-20T20:03:37.021Z,17.10
2024-01-20T20:06:03.961Z,16.20
2024-01-20T20:08:31.118Z,15.10
2024-01-20T20:10:57.886Z,16.30
2024-01-20T20:13:27.566Z,14.90
2024-01-20T20:15:55.709Z,13.90
2024-01-20T20:18:22.704Z,15.00
2024-01-20T20:20:49.611Z,15.20
2024-01-20T20:23:16.478Z,15.50
2024-01-20T20:25:43.451Z,15.40
2024-01-20T20:28:10.415Z,14.70
2024-01-20T20:30:37.065Z,14.00
2024-01-20T20:33:04.460Z,14.60
2024-01-20T20:35:32.189Z,15.70
2024-01-20T20:37:59.514Z,14.00
2024-01-20T20:40:26.210Z,14.00
2024-01-20T20:42:52.967Z,16.10
2024-01-20T20:45:20.030Z,14.60
2024-01-20T20:47:47.063Z,13.40
2024-01-20T20:50:17.845Z,13.40
2024-01-20T20:52:46.421Z,14.20
2024-01-20T20:55:13.622Z,15.10
2024-01-20T20:57:41.308Z,13.90
2024-01-20T21:00:14.145Z,13.80
2024-01-20T21:02:41.436Z,14.50
2024-01-20T21:05:14.939Z,14.20
2024-01-20T21:07:41.858Z,14.20
2024-01-20T21:10:09.160Z,13.70
2024-01-20T21:12:35.883Z,13.00
2024-01-20T21:15:02.668Z,13.10
2024-01-20T21:17:30.732Z,14.40
2024-01-20T21:19:57.822Z,15.70
2024-01-20T21:22:24.802Z,14.30
2024-01-20T21:24:51.545Z,13.60
2024-01-20T21:27:20.551Z,14.00
2024-01-20T21:29:47.269Z,15.20
2024-01-20T21:32:13.961Z,14.50
2024-01-20T21:34:40.923Z,14.60
2024-01-20T21:37:07.606Z,15.10
2024-01-20T21:39:34.231Z,16.30
2024-01-20T21:42:00.891Z,15.30
2024-01-20T21:44:27.738Z,15.20
2024-01-20T21:46:55.150Z,15.80
2024-01-20T21:49:22.691Z,14.70
2024-01-20T21:51:49.988Z,13.90
2024-01-20T21:54:16.785Z,13.30
2024-01-20T21:56:43.441Z,13.70
2024-01-20T21:59:10.033Z,12.90
2024-01-20T22:01:37.105Z,12.40
2024-01-20T22:04:04.782Z,12.90
2024-01-20T22:06:31.624Z,12.70
2024-01-20T22:08:58.319Z,14.70
2024-01-20T22:11:25.560Z,13.80
2024-01-20T22:13:52.203Z,13.40
2024-01-20T22:16:18.936Z,12.90
2024-01-20T22:18:46.788Z,13.30
2024-01-20T22:21:14.984Z,13.50
2024-01-20T22:23:43.711Z,12.70
2024-01-20T22:26:20.618Z,11.90
2024-01-20T22:28:48.146Z,13.10
2024-01-20T22:31:15.320Z,13.50
2024-01-20T22:33:42.344Z,13.50
2024-01-20T22:36:10.580Z,13.20
2024-01-20T22:38:37.386Z,11.90
2024-01-20T22:41:06.110Z,12.90
2024-01-20T22:43:32.834Z,12.10
2024-01-20T22:45:59.567Z,12.30
2024-01-20T22:48:28.502Z,11.40
2024-01-20T22:50:56.470Z,10.30
2024-01-20T22:53:23.120Z,11.00
2024-01-20T22:55:49.760Z,10.80
2024-01-20T22:58:16.411Z,10.70
2024-01-20T23:00:44.277Z,9.90
2024-01-20T23:03:11.227Z,10.10
2024-01-20T23:05:40.115Z,10.30
2024-01-20T23:08:09.635Z,10.30
2024-01-20T23:10:36.333Z,10.00
2024-01-20T23:13:03.118Z,8.40
2024-01-20T23:15:30.531Z,8.30
2024-01-20T23:17:57.256Z,9.00
2024-01-20T23:20:23.905Z,8.30
2024-01-20T23:22:50.640Z,6.90
2024-01-20T23:25:17.315Z,6.80
2024-01-20T23:27:44.094Z,6.30
2024-01-20T23:30:12.700Z,5.60
2024-01-20T23:32:41.548Z,5.60
2024-01-20T23:35:08.808Z,5.00
2024-01-20T23:37:35.653Z,5.20
2024-01-20T23:40:03.122Z,4.70
2024-01-20T23:42:30.452Z,4.00
2024-01-20T23:44:57.881Z,4.30
2024-01-20T23:47:24.533Z,4.10
2024-01-20T23:49:51.191Z,3.90
2024-01-20T23:52:17.850Z,4.00
2024-01-20T23:54:44.551Z,3.00
2024-01-20T23:57:11.258Z,3.60
2024-01-20T23:59:37.876Z,2.90
